M I D A S
Marine Information and Data Acquisition System
Tripno 672 of the Zeeleeuw from 2004-03-19 07:12:58 to 2004-03-19 13:07:22
Back to CruiseResearch ActivitiesStationsMapUnderway DataData graphs

EquipmentUnitsComment
TimeDGPSUTC
LatitudeDGPSDM.mWGS84
LongitudeDGPSDM.mWGS84
TemperatureSBE03/SBE38deg celciusITS90
ConductivitySBE21S/mITS90
SalinitySBE21 Practical Salinity Units
ChlorophylAChelsea fluorimeterg/lCalibrated in Aceton
Missing or incorrect values are displayed as -999
Sea surface data collected by the RV Zeeleeuw from 2004-03-19 07:12:58 to 2004-03-19 13:07:22
Time Latitude Longitude Temperature Conductivity Salinity ChlorophylA
2004-03-19 07:13:59 51°13.605 2°56.055 13.870743 0.010793 0.058887 0.567127
2004-03-19 07:14:59 51°13.58 2°56.111 13.715775 0.010793 0.058908 0.567127
2004-03-19 07:15:59 51°13.538 2°56.192 13.795097 0.010793 0.058926 0.567127
2004-03-19 07:16:59 51°13.538 2°56.248 13.661037 0.010793 0.058952 0.567127
2004-03-19 07:17:59 51°13.536 2°56.232 13.795053 0.010793 0.058979 0.533418
2004-03-19 07:18:59 51°13.534 2°56.238 13.725485 0.010793 0.059006 0.567127
2004-03-19 07:19:59 51°13.536 2°56.232 13.758727 0.010793 0.059027 0.533418
2004-03-19 07:20:59 51°13.532 2°56.237 13.768564 0.010793 0.059048 0.533418
2004-03-19 07:21:59 51°13.539 2°56.214 13.77007 0.010793 0.059066 0.499708
2004-03-19 07:22:59 51°13.551 2°56.178 13.760189 0.010689 0.058561 0.533418
2004-03-19 07:23:59 51°13.563 2°56.144 13.76369 0.010689 0.058574 0.499708
2004-03-19 07:24:59 51°13.573 2°56.111 13.765861 0.010689 0.058585 0.499708
2004-03-19 07:25:59 51°13.585 2°56.073 13.77357 0.010689 0.058597 0.499708
2004-03-19 07:26:59 51°13.599 2°56.037 13.785176 0.010689 0.058608 0.465999
2004-03-19 07:28:01 51°13.616 2°55.999 13.800102 0.010689 0.058619 0.465999
2004-03-19 07:28:59 51°13.644 2°55.931 13.805548 0.010689 0.058628 0.465999
2004-03-19 07:29:59 51°13.692 2°55.821 13.765329 0.010689 0.058641 0.432289
2004-03-19 07:30:59 51°13.773 2°55.683 13.644394 0.010689 0.058653 0.465999
2004-03-19 07:31:59 51°13.888 2°55.585 13.74951 0.010689 0.058668 0.465999
2004-03-19 07:32:59 51°14.008 2°55.5 7.904681 3.645111 29.487933 14.354272
2004-03-19 07:33:59 51°14.15 2°55.396 7.44597 2.750446 25.885945 16.039742
2004-03-19 07:34:59 51°14.287 2°55.221 7.541094 2.65671 25.062838 16.511674
2004-03-19 07:35:59 51°14.4 2°54.98 7.482652 2.429967 22.642842 15.399264
2004-03-19 07:36:59 51°14.423 2°54.641 7.166659 2.789275 26.549507 14.421691
2004-03-19 07:37:59 51°14.335 2°54.305 7.004684 3.104518 30.091979 13.814922
2004-03-19 07:38:59 51°14.207 2°53.994 6.951699 3.078198 29.897952 14.050888
2004-03-19 07:39:59 51°14.083 2°53.675 6.920271 3.25847 31.899626 13.275571
2004-03-19 07:40:59 51°13.962 2°53.348 6.936208 3.26342 31.956473 13.073315
2004-03-19 07:41:59 51°13.851 2°53.01 6.934782 3.250572 31.821806 12.500255
2004-03-19 07:42:59 51°13.737 2°52.672 6.948356 3.268896 32.010382 12.196871
2004-03-19 07:43:59 51°13.623 2°52.332 6.959025 3.264578 31.958018 11.11817
2004-03-19 07:44:59 51°13.507 2°51.992 6.965957 3.282903 32.14659 10.781076
2004-03-19 07:45:59 51°13.392 2°51.654 6.966941 3.307232 32.40999 10.578819
2004-03-19 07:46:59 51°13.277 2°51.316 6.97397 3.308602 32.431257 10.882204
2004-03-19 07:47:59 51°13.164 2°50.974 6.987339 3.31471 32.484053 11.08446
2004-03-19 07:48:59 51°13.05 2°50.634 6.999918 3.311024 32.434416 11.11817
2004-03-19 07:49:59 51°12.938 2°50.293 7.013183 3.315447 32.470479 11.050751
2004-03-19 07:50:59 51°12.826 2°49.953 7.040392 3.307337 32.368091 11.08446
2004-03-19 07:51:59 51°12.714 2°49.613 7.060914 3.33409 32.632872 11.017042
2004-03-19 07:52:59 51°12.605 2°49.273 7.099534 3.350205 32.784513 10.342853
2004-03-19 07:53:59 51°12.494 2°48.937 7.115476 3.350836 32.767236 10.140597
2004-03-19 07:54:59 51°12.38 2°48.594 7.112876 3.353048 32.783993 10.275435
2004-03-19 07:55:59 51°12.268 2°48.253 7.114201 3.369375 32.964381 9.904631
2004-03-19 07:56:59 51°12.158 2°47.915 7.111013 3.370955 32.98558 9.500118
2004-03-19 07:57:59 51°12.049 2°47.578 7.112582 3.400449 33.306862 9.904631
2004-03-19 07:58:59 51°11.939 2°47.241 7.129746 3.379487 33.06688 9.365281
2004-03-19 07:59:59 51°11.843 2°46.894 7.12293 3.402345 33.308679 9.634956
2004-03-19 08:00:59 51°11.749 2°46.546 7.131806 3.385912 33.133411 9.938341
2004-03-19 08:01:59 51°11.656 2°46.197 7.13715 3.39613 33.230551 10.039469
2004-03-19 08:02:59 51°11.562 2°45.848 7.125578 3.379487 33.059582 10.410272
2004-03-19 08:03:59 51°11.468 2°45.498 7.137592 3.406769 33.35922 10.410272
2004-03-19 08:04:59 51°11.374 2°45.149 7.129697 3.394971 33.225298 10.949623
2004-03-19 08:05:59 51°11.28 2°44.799 7.114544 3.395604 33.246839 10.578819
2004-03-19 08:06:59 51°11.187 2°44.451 7.107726 3.40698 33.376247 10.814785
2004-03-19 08:07:59 51°11.094 2°44.102 7.083637 3.33114 32.568849 10.646238
2004-03-19 08:08:59 51°11.002 2°43.755 7.057429 3.397711 33.31797 10.781076
2004-03-19 08:09:59 51°10.909 2°43.407 7.039116 3.407508 33.44847 10.915913
2004-03-19 08:10:59 51°10.817 2°43.06 7.044468 3.408666 33.465213 10.646238
2004-03-19 08:11:59 51°10.723 2°42.713 7.046481 3.414776 33.528519 10.781076
2004-03-19 08:12:59 51°10.632 2°42.368 7.04324 3.39413 33.302722 11.08446
2004-03-19 08:13:59 51°10.544 2°42.022 7.041669 3.413301 33.514915 10.882204
2004-03-19 08:14:59 51°10.461 2°41.673 7.040883 3.408034 33.458324 11.421554
2004-03-19 08:15:59 51°10.377 2°41.326 7.040245 3.417199 33.559887 11.219298
2004-03-19 08:16:59 51°10.294 2°40.981 7.039557 3.415619 33.542657 11.354136
2004-03-19 08:17:59 51°10.212 2°40.635 7.046481 3.416883 33.553964 11.927195
2004-03-19 08:18:59 51°10.131 2°40.29 7.063025 3.418568 33.562436 11.960905
2004-03-19 08:19:59 51°10.048 2°39.946 7.073037 3.414565 33.50315 11.421554
2004-03-19 08:20:59 51°9.966 2°39.602 7.085747 3.418884 33.541963 12.331708
2004-03-19 08:21:59 51°9.884 2°39.258 7.103704 3.415513 33.491255 12.668802
2004-03-19 08:22:59 51°9.803 2°38.914 7.128619 3.411405 33.425189 13.241862
2004-03-19 08:23:59 51°9.722 2°38.571 7.156808 3.424572 33.544599 13.34299
2004-03-19 08:24:59 51°9.641 2°38.227 7.204872 3.417408 33.431446 13.477828
2004-03-19 08:25:59 51°9.561 2°37.884 7.260192 3.433841 33.555764 14.354272
2004-03-19 08:26:59 51°9.48 2°37.541 7.299914 3.435948 33.533533 14.286853
2004-03-19 08:27:59 51°9.399 2°37.199 7.331499 3.440056 33.548578 14.286853
2004-03-19 08:28:59 51°9.318 2°36.856 7.379529 3.443321 33.546311 13.814922
2004-03-19 08:29:59 51°9.24 2°36.514 7.465094 3.437421 33.426301 13.680084
2004-03-19 08:30:59 51°9.161 2°36.175 7.639238 3.458383 33.479415 13.241862
2004-03-19 08:31:59 51°9.075 2°35.84 7.656602 3.462491 33.469375 12.702512
2004-03-19 08:32:59 51°8.99 2°35.505 7.616176 3.467969 33.546828 13.107024
2004-03-19 08:33:59 51°8.904 2°35.169 7.608681 3.456592 33.439135 13.208153
2004-03-19 08:34:59 51°8.818 2°34.833 7.611358 3.45596 33.438808 13.3767
2004-03-19 08:35:59 51°8.733 2°34.499 7.54694 3.467232 33.594086 13.241862
2004-03-19 08:36:59 51°8.648 2°34.166 7.511465 3.465969 33.628494 12.938477
2004-03-19 08:37:59 51°8.556 2°33.84 7.488211 3.464916 33.642416 14.050888
2004-03-19 08:38:59 51°8.463 2°33.514 7.500497 3.465126 33.649586 14.387982
2004-03-19 08:39:59 51°8.372 2°33.188 7.527743 3.470604 33.684993 14.590238
2004-03-19 08:40:59 51°8.295 2°32.966 7.561748 3.477978 33.725283 14.826204
2004-03-19 08:41:59 51°8.285 2°32.933 7.566472 3.451536 33.434093 14.893623
2004-03-19 08:42:59 51°8.293 2°32.951 7.569296 3.467127 33.598644 15.230717
2004-03-19 08:43:59 51°8.313 2°32.941 7.570611 3.475766 33.690844 15.163298
2004-03-19 08:44:59 51°8.339 2°32.922 7.558923 3.475134 33.684037 14.758785
2004-03-19 08:45:59 51°8.366 2°32.906 7.53476 3.475871 33.705031 14.691366
2004-03-19 08:46:59 51°8.392 2°32.893 7.507858 3.476609 33.744844 15.02846
2004-03-19 08:47:59 51°8.419 2°32.881 7.496304 3.469446 33.688014 14.758785
2004-03-19 08:48:59 51°8.446 2°32.866 7.486894 3.453538 33.524607 14.084597
2004-03-19 08:49:59 51°8.471 2°32.851 7.476312 3.454802 33.548004 14.185725
2004-03-19 08:50:59 51°8.496 2°32.842 7.462997 3.418985 33.171657 13.275571
2004-03-19 08:51:59 51°8.52 2°32.833 7.450069 3.467128 33.70307 13.107024
2004-03-19 08:52:59 51°8.548 2°32.827 7.44358 3.462915 33.665743 12.601383
2004-03-19 08:53:59 51°8.578 2°32.82 7.438114 3.467023 33.717491 12.432836
2004-03-19 08:54:59 51°8.609 2°32.813 7.421277 3.460913 33.662936 12.196871
2004-03-19 08:55:59 51°8.64 2°32.806 7.412051 3.466075 33.726916 11.792358
2004-03-19 08:56:59 51°8.67 2°32.802 7.397013 3.466497 33.747883 11.455264
2004-03-19 08:57:59 51°8.701 2°32.798 7.385488 3.458912 33.677329 11.320426
2004-03-19 08:58:59 51°8.733 2°32.795 7.366633 3.448588 33.577951 11.151879
2004-03-19 08:59:59 51°8.8 2°32.805 7.360185 3.464601 33.761871 11.050751
2004-03-19 09:00:59 51°8.92 2°32.963 7.326464 3.444901 33.572407 11.253007
2004-03-19 09:01:59 51°9.101 2°33.207 7.305245 3.44743 33.621079 11.050751
2004-03-19 09:02:59 51°9.285 2°33.465 7.276779 3.461231 33.797819 11.387845
2004-03-19 09:03:59 51°9.464 2°33.733 7.228034 3.460388 33.819224 12.129452
2004-03-19 09:04:59 51°9.642 2°34.005 7.174254 3.443428 33.683708 12.736221
2004-03-19 09:05:59 51°9.822 2°34.272 7.079319 3.441954 33.751119 13.34299
2004-03-19 09:06:59 51°10.001 2°34.543 7.052176 3.419832 33.564662 13.814922
2004-03-19 09:07:59 51°10.18 2°34.813 7.047463 3.446485 33.870286 13.949759
2004-03-19 09:08:59 51°10.365 2°35.068 7.090507 3.419306 33.562222 13.241862
2004-03-19 09:09:59 51°10.555 2°35.312 7.15568 3.448907 33.821047 13.511537
2004-03-19 09:10:59 51°10.751 2°35.544 7.192333 3.449433 33.779546 13.882341
2004-03-19 09:11:59 51°10.944 2°35.792 7.215205 3.444797 33.699412 14.050888
2004-03-19 09:12:59 51°11.143 2°36.026 7.207615 3.456385 33.815428 14.4554
2004-03-19 09:13:59 51°11.34 2°36.256 7.149308 3.449644 33.776873 13.713794
2004-03-19 09:14:59 51°11.534 2°36.489 7.117438 3.435317 33.672237 14.320563
2004-03-19 09:15:59 51°11.73 2°36.72 7.127393 3.445325 33.78535 13.882341
2004-03-19 09:16:59 51°11.927 2°36.947 7.137199 3.422465 33.525795 13.814922
2004-03-19 09:17:59 51°12.124 2°37.174 7.144455 3.428996 33.589433 13.477828
2004-03-19 09:18:59 51°12.32 2°37.403 7.144602 3.432999 33.62886 13.309281
2004-03-19 09:19:59 51°12.518 2°37.625 7.143131 3.43026 33.602361 13.3767
2004-03-19 09:20:59 51°12.711 2°37.858 7.137101 3.423308 33.526739 13.073315
2004-03-19 09:21:59 51°12.905 2°38.087 7.140827 3.438477 33.69259 12.331708
2004-03-19 09:22:59 51°13.101 2°38.321 7.119939 3.437319 33.687415 12.028324
2004-03-19 09:23:59 51°13.301 2°38.557 7.091733 3.43321 33.666648 12.76993
2004-03-19 09:24:59 51°13.501 2°38.791 7.098406 3.441217 33.767948 12.972187
2004-03-19 09:25:59 51°13.707 2°38.974 7.001048 3.405085 33.402352 14.152016
2004-03-19 09:26:59 51°13.933 2°39.061 6.902066 3.420887 33.702088 14.354272
2004-03-19 09:27:59 51°14.121 2°38.913 6.864262 3.405613 33.589764 13.275571
2004-03-19 09:28:59 51°14.249 2°38.648 6.827519 3.4014 33.570189 12.871059
2004-03-19 09:29:59 51°14.248 2°38.324 6.804605 3.401506 33.608771 12.533965
2004-03-19 09:30:59 51°14.197 2°38 6.804211 3.404982 33.651909 11.927195
2004-03-19 09:31:59 51°14.148 2°37.68 6.811603 3.407826 33.682286 12.095742
2004-03-19 09:32:59 51°14.103 2°37.364 6.834514 3.417939 33.779896 11.960905
2004-03-19 09:33:59 51°14.056 2°37.053 6.842544 3.416675 33.743456 12.129452
2004-03-19 09:34:59 51°14.01 2°36.745 6.807365 3.366218 33.204725 12.264289
2004-03-19 09:35:59 51°13.965 2°36.439 6.781536 3.418677 33.816471 13.140734
2004-03-19 09:36:59 51°13.918 2°36.133 6.757964 3.419941 33.847981 12.365418
2004-03-19 09:37:59 51°13.869 2°35.828 6.727033 3.421943 33.902784 12.095742
2004-03-19 09:38:59 51°13.821 2°35.525 6.704725 3.421206 33.923316 11.455264
2004-03-19 09:39:59 51°13.773 2°35.218 6.702898 3.421838 33.942089 11.590101
2004-03-19 09:40:59 51°13.725 2°34.914 6.699146 3.423629 33.959284 11.219298
2004-03-19 09:41:59 51°13.673 2°34.608 6.705218 3.425104 33.978066 11.11817
2004-03-19 09:42:59 51°13.623 2°34.297 6.719038 3.428369 34.00052 11.185589
2004-03-19 09:43:59 51°13.577 2°33.987 6.720568 3.429528 34.006522 11.185589
2004-03-19 09:44:59 51°13.53 2°33.676 6.72496 3.429949 34.011163 11.151879
2004-03-19 09:45:59 51°13.481 2°33.363 6.728809 3.430581 34.014743 10.983332
2004-03-19 09:46:59 51°13.433 2°33.049 6.750122 3.433215 34.029372 10.848494
2004-03-19 09:47:59 51°13.387 2°32.737 6.773104 3.438692 34.066842 10.646238
2004-03-19 09:48:59 51°13.341 2°32.424 6.795783 3.441747 34.081009 9.938341
2004-03-19 09:49:59 51°13.299 2°32.116 6.794156 3.443538 34.088026 10.174306
2004-03-19 09:50:59 51°13.26 2°31.814 6.800317 3.442484 34.078131 9.365281
2004-03-19 09:51:59 51°13.223 2°31.514 6.842248 3.445223 34.089657 9.769794
2004-03-19 09:52:59 51°13.19 2°31.249 6.870269 3.451438 34.108962 9.668665
2004-03-19 09:53:59 51°13.18 2°31.095 6.917762 3.457337 34.139109 10.376563
2004-03-19 09:54:59 51°13.15 2°30.985 6.948749 3.461972 34.159573 10.814785
2004-03-19 09:55:59 51°13.101 2°30.887 6.922878 3.463342 34.167838 10.679947
2004-03-19 09:56:59 51°13.097 2°30.882 6.883019 3.459865 34.160094 10.5114
2004-03-19 09:57:59 51°13.117 2°30.916 6.861061 3.456495 34.158569 9.97205
2004-03-19 09:58:59 51°13.14 2°30.972 6.845105 3.45502 34.156742 9.837212
2004-03-19 09:59:59 51°13.173 2°31.009 6.842741 3.453861 34.152467 9.904631
2004-03-19 10:00:59 51°13.218 2°31.018 6.827568 3.449647 34.11209 10.309144
2004-03-19 10:01:59 51°13.256 2°31.03 6.80224 3.449226 34.13028 10.342853
2004-03-19 10:02:59 51°13.29 2°31.046 6.769209 3.445856 34.128745 10.039469
2004-03-19 10:03:59 51°13.327 2°31.066 6.755301 3.444065 34.121739 9.567537
2004-03-19 10:04:59 51°13.365 2°31.088 6.74879 3.442379 34.115042 10.241725
2004-03-19 10:05:59 51°13.409 2°31.112 6.744646 3.440905 34.108968 10.443982
2004-03-19 10:06:59 51°13.457 2°31.141 6.74583 3.440589 34.106335 10.140597
2004-03-19 10:07:59 51°13.505 2°31.17 6.742969 3.440905 34.106427 9.702375
2004-03-19 10:08:59 51°13.555 2°31.206 6.750467 3.440167 34.102542 9.803503
2004-03-19 10:09:59 51°13.61 2°31.255 6.744202 3.443433 34.133419 10.208016
2004-03-19 10:10:59 51°13.66 2°31.34 6.744992 3.440167 34.096614 9.904631
2004-03-19 10:11:59 51°13.682 2°31.441 6.744548 3.440799 34.0968 10.309144
2004-03-19 10:12:59 51°13.688 2°31.527 6.746965 3.440167 34.094921 9.938341
2004-03-19 10:13:59 51°13.653 2°31.637 6.756189 3.440905 34.100499 10.241725
2004-03-19 10:14:59 51°13.536 2°31.673 6.76048 3.441958 34.104476 10.309144
2004-03-19 10:15:59 51°13.39 2°31.608 6.761959 3.441853 34.109243 9.803503
2004-03-19 10:16:59 51°13.216 2°31.547 6.843036 3.446488 34.125541 9.904631
2004-03-19 10:17:59 51°13.026 2°31.499 6.92519 3.459233 34.156536 11.421554
2004-03-19 10:18:59 51°12.832 2°31.461 6.906101 3.458074 34.134544 11.050751
2004-03-19 10:19:59 51°12.639 2°31.42 6.916384 3.454177 34.086747 10.747366
2004-03-19 10:20:59 51°12.449 2°31.384 6.915991 3.455546 34.101762 10.747366
2004-03-19 10:21:59 51°12.257 2°31.347 6.91604 3.456494 34.10963 10.679947
2004-03-19 10:22:59 51°12.064 2°31.31 6.913826 3.455651 34.102917 10.410272
2004-03-19 10:23:59 51°11.869 2°31.264 6.884003 3.45365 34.090235 11.050751
2004-03-19 10:24:59 51°11.672 2°31.216 6.878589 3.449331 34.069814 10.578819
2004-03-19 10:25:59 51°11.474 2°31.167 6.894733 3.448699 34.055299 11.151879
2004-03-19 10:26:59 51°11.277 2°31.116 6.919877 3.449436 34.043188 11.320426
2004-03-19 10:27:59 51°11.107 2°31.079 6.949241 3.451016 34.031085 11.590101
2004-03-19 10:28:59 51°11.031 2°31.104 6.974019 3.452596 34.020684 11.185589
2004-03-19 10:29:59 51°11.056 2°31.159 6.988469 3.45386 34.017744 12.297999
2004-03-19 10:30:59 51°11.088 2°31.218 6.986503 3.454597 34.019943 11.994614
2004-03-19 10:31:59 51°11.118 2°31.285 6.989403 3.454597 34.015751 12.196871
2004-03-19 10:32:59 51°11.134 2°31.369 7.0038 3.455334 34.014598 11.69123
2004-03-19 10:33:59 51°11.15 2°31.445 7.001147 3.455966 34.020673 12.297999
2004-03-19 10:34:59 51°11.169 2°31.515 7.003358 3.455861 34.016169 12.399127
2004-03-19 10:35:59 51°11.187 2°31.583 7.009253 3.456177 34.012923 12.095742
2004-03-19 10:36:59 51°11.204 2°31.65 7.010678 3.456177 34.015436 12.466546
2004-03-19 10:37:59 51°11.214 2°31.717 7.0066 3.455545 34.009362 12.736221
2004-03-19 10:38:59 51°11.22 2°31.78 7.010678 3.455861 34.00863 12.938477
2004-03-19 10:39:59 51°11.226 2°31.835 7.017899 3.455966 34.008107 13.039606
2004-03-19 10:40:59 51°11.237 2°31.87 7.022664 3.456388 34.007689 13.174443
2004-03-19 10:41:59 51°11.256 2°31.868 7.022909 3.455966 34.002246 12.871059
2004-03-19 10:42:59 51°11.292 2°31.825 7.026003 3.456177 33.999527 13.34299
2004-03-19 10:43:59 51°11.383 2°31.863 7.012446 3.456282 34.004026 13.410409
2004-03-19 10:44:59 51°11.453 2°31.924 7.006502 3.455756 34.010829 12.533965
2004-03-19 10:45:59 51°11.467 2°31.985 6.993481 3.45544 34.016588 11.927195
2004-03-19 10:46:59 51°11.494 2°32.045 6.991024 3.455124 34.019837 11.960905
2004-03-19 10:47:59 51°11.53 2°32.095 7.004832 3.45544 34.017426 11.724939
2004-03-19 10:48:59 51°11.565 2°32.137 7.004635 3.45544 34.012399 11.724939
2004-03-19 10:49:59 51°11.601 2°32.16 7.007435 3.455861 34.015331 11.151879
2004-03-19 10:50:59 51°11.641 2°32.055 6.986946 3.456072 34.036079 11.151879
2004-03-19 10:51:59 51°11.657 2°31.791 6.963844 3.454176 34.026235 11.623811
2004-03-19 10:52:59 51°11.63 2°31.496 6.949683 3.450489 34.018597 11.421554
2004-03-19 10:53:59 51°11.594 2°31.196 6.954994 3.452069 34.024989 10.949623
2004-03-19 10:54:59 51°11.562 2°30.897 6.950863 3.452385 34.02761 11.826067
2004-03-19 10:55:59 51°11.525 2°30.604 6.950372 3.454176 34.058143 11.488973
2004-03-19 10:56:59 51°11.486 2°30.314 6.955436 3.457863 34.093488 11.522683
2004-03-19 10:57:59 51°11.448 2°30.022 6.955043 3.462183 34.136596 11.387845
2004-03-19 10:58:59 51°11.408 2°29.732 6.953273 3.463868 34.15422 12.432836
2004-03-19 10:59:59 51°11.37 2°29.442 6.952781 3.465343 34.172908 11.724939
2004-03-19 11:00:59 51°11.334 2°29.153 6.950962 3.466291 34.184984 11.623811
2004-03-19 11:01:59 51°11.307 2°28.859 6.948897 3.467029 34.194753 11.219298
2004-03-19 11:02:59 51°11.29 2°28.567 6.95165 3.467661 34.199992 11.253007
2004-03-19 11:03:59 51°11.271 2°28.279 6.957747 3.468714 34.209006 11.994614
2004-03-19 11:04:59 51°11.246 2°27.994 6.960058 3.467661 34.194086 12.028324
2004-03-19 11:05:59 51°11.219 2°27.709 6.959714 3.466818 34.184852 12.938477
2004-03-19 11:06:59 51°11.19 2°27.42 6.968956 3.466502 34.173801 13.34299
2004-03-19 11:07:59 51°11.164 2°27.126 6.965515 3.466818 34.173891 13.174443
2004-03-19 11:08:59 51°11.138 2°26.835 6.959173 3.464289 34.148726 13.983469
2004-03-19 11:09:59 51°11.113 2°26.546 6.961779 3.461972 34.131761 14.152016
2004-03-19 11:10:59 51°11.088 2°26.26 6.971906 3.463341 34.134974 13.073315
2004-03-19 11:11:59 51°11.062 2°25.971 6.974413 3.464184 34.13831 12.399127
2004-03-19 11:12:59 51°11.037 2°25.685 6.975887 3.465659 34.155302 12.601383
2004-03-19 11:13:59 51°11.015 2°25.405 6.98729 3.468398 34.179399 12.163161
2004-03-19 11:14:59 51°11.106 2°25.136 6.995447 3.472717 34.214892 12.567674
2004-03-19 11:15:59 51°11.322 2°25.008 7.009204 3.475772 34.238218 12.163161
2004-03-19 11:16:59 51°11.575 2°25.049 7.011955 3.481145 34.286904 12.533965
2004-03-19 11:17:59 51°11.829 2°25.11 7.011808 3.4842 34.318658 12.331708
2004-03-19 11:18:59 51°12.08 2°25.218 7.02787 3.486623 34.340956 12.095742
2004-03-19 11:19:59 51°12.329 2°25.32 7.025512 3.491469 34.38216 12.567674
2004-03-19 11:20:59 51°12.573 2°25.442 7.017752 3.491786 34.385619 12.668802
2004-03-19 11:21:59 51°12.816 2°25.587 7.019078 3.490732 34.381705 13.140734
2004-03-19 11:22:59 51°13.056 2°25.736 7.006502 3.488941 34.374795 13.140734
2004-03-19 11:23:59 51°13.299 2°25.874 6.997462 3.487572 34.367416 12.80364
2004-03-19 11:24:59 51°13.538 2°26.017 6.998887 3.486834 34.3568 12.837349
2004-03-19 11:25:59 51°13.781 2°26.16 7.02006 3.488098 34.360487 12.095742
2004-03-19 11:26:59 51°14.019 2°26.309 6.995693 3.486939 34.348645 12.129452
2004-03-19 11:27:59 51°14.258 2°26.444 6.936061 3.480724 34.323717 12.76993
2004-03-19 11:28:59 51°14.495 2°26.584 6.91914 3.47493 34.303371 11.994614
2004-03-19 11:29:59 51°14.736 2°26.722 6.894832 3.472613 34.294885 12.567674
2004-03-19 11:30:59 51°14.938 2°26.858 6.919976 3.471665 34.287022 11.960905
2004-03-19 11:31:59 51°15.05 2°26.975 6.888975 3.471665 34.292953 11.286717
2004-03-19 11:32:59 51°15.104 2°27.081 6.895619 3.470611 34.287322 11.11817
2004-03-19 11:33:59 51°15.131 2°27.148 6.898621 3.470506 34.270916 11.488973
2004-03-19 11:34:59 51°15.162 2°27.201 6.884348 3.470084 34.278997 11.758648
2004-03-19 11:35:59 51°15.191 2°27.257 6.883019 3.470611 34.288169 11.455264
2004-03-19 11:36:59 51°15.22 2°27.314 6.883019 3.470085 34.284081 11.050751
2004-03-19 11:37:59 51°15.248 2°27.372 6.888827 3.469558 34.278298 11.219298
2004-03-19 11:38:59 51°15.271 2°27.435 6.890944 3.470295 34.283004 11.017042
2004-03-19 11:39:59 51°15.287 2°27.506 6.883216 3.469979 34.279535 10.983332
2004-03-19 11:40:59 51°15.303 2°27.577 6.882822 3.469452 34.280532 11.488973
2004-03-19 11:41:59 51°15.316 2°27.657 6.881936 3.469558 34.282536 11.556392
2004-03-19 11:42:59 51°15.324 2°27.736 6.883511 3.469768 34.282307 11.185589
2004-03-19 11:43:59 51°15.333 2°27.811 6.884003 3.469242 34.281609 11.151879
2004-03-19 11:44:59 51°15.34 2°27.886 6.875783 3.469031 34.278447 11.522683
2004-03-19 11:45:59 51°15.351 2°27.963 6.874798 3.469136 34.281299 11.11817
2004-03-19 11:46:59 51°15.36 2°28.041 6.87721 3.468504 34.274359 11.286717
2004-03-19 11:47:59 51°15.369 2°28.116 6.872238 3.467767 34.271346 11.185589
2004-03-19 11:48:59 51°15.382 2°28.19 6.868299 3.467451 34.267875 11.421554
2004-03-19 11:49:59 51°15.395 2°28.26 6.867561 3.466819 34.266019 11.219298
2004-03-19 11:50:59 51°15.387 2°28.402 6.868201 3.466608 34.264552 11.69123
2004-03-19 11:51:59 51°15.395 2°28.553 6.884693 3.467135 34.26271 11.421554
2004-03-19 11:52:58 51°15.407 2°28.7 6.912744 3.471349 34.281859 11.354136
2004-03-19 11:53:59 51°15.429 2°28.876 6.934389 3.474193 34.291894 11.590101
2004-03-19 11:54:59 51°15.534 2°29.176 6.992056 3.477985 34.30893 11.826067
2004-03-19 11:55:59 51°15.664 2°29.541 7.050261 3.489784 34.351872 12.533965
2004-03-19 11:56:59 51°15.759 2°29.932 7.047905 3.49168 34.356558 13.275571
2004-03-19 11:57:59 51°15.847 2°30.346 7.043584 3.490205 34.343806 13.275571
2004-03-19 11:58:59 51°15.932 2°30.749 6.989255 3.486202 34.3262 13.511537
2004-03-19 11:59:59 51°16.011 2°31.151 6.925535 3.477458 34.296386 12.466546
2004-03-19 12:00:59 51°16.068 2°31.557 6.895324 3.470716 34.268148 12.028324
2004-03-19 12:01:59 51°16.107 2°31.971 6.88297 3.46724 34.245235 11.960905
2004-03-19 12:02:59 51°16.109 2°32.375 6.91668 3.468399 34.244412 11.219298
2004-03-19 12:03:59 51°16.06 2°32.768 6.934733 3.47198 34.26086 11.151879
2004-03-19 12:04:59 51°15.999 2°33.152 6.949192 3.47335 34.258964 11.859777
2004-03-19 12:05:59 51°15.913 2°33.52 6.955977 3.47335 34.2446 11.623811
2004-03-19 12:06:59 51°15.838 2°33.889 6.9487 3.473666 34.249752 11.488973
2004-03-19 12:07:59 51°15.768 2°34.264 6.940832 3.471769 34.233197 12.365418
2004-03-19 12:08:59 51°15.704 2°34.629 6.866133 3.465659 34.202534 11.960905
2004-03-19 12:09:59 51°15.643 2°34.997 6.793219 3.45344 34.159678 11.151879
2004-03-19 12:10:59 51°15.582 2°35.367 6.756485 3.446593 34.1394 10.646238
2004-03-19 12:11:59 51°15.516 2°35.735 6.791395 3.443433 34.097858 10.882204
2004-03-19 12:12:59 51°15.445 2°36.101 6.901328 3.449648 34.118004 10.713657
2004-03-19 12:13:59 51°15.373 2°36.465 6.916532 3.455862 34.095962 11.11817
2004-03-19 12:14:59 51°15.288 2°36.825 6.875536 3.454071 34.089802 11.11817
2004-03-19 12:15:59 51°15.202 2°37.181 6.833825 3.450174 34.089179 11.11817
2004-03-19 12:16:59 51°15.11 2°37.539 6.827667 3.447014 34.074722 11.08446
2004-03-19 12:17:59 51°15.011 2°37.896 6.824563 3.445644 34.074867 11.11817
2004-03-19 12:18:59 51°14.922 2°38.256 6.825252 3.446698 34.083908 11.421554
2004-03-19 12:19:59 51°14.832 2°38.609 6.799627 3.445539 34.075397 11.017042
2004-03-19 12:20:59 51°14.743 2°38.963 6.781388 3.441325 34.051879 11.724939
2004-03-19 12:21:59 51°14.65 2°39.314 6.782078 3.439219 34.040534 12.062033
2004-03-19 12:22:59 51°14.563 2°39.668 6.770787 3.43806 34.032857 12.466546
2004-03-19 12:23:59 51°14.467 2°40.015 6.798296 3.435742 33.997259 13.680084
2004-03-19 12:24:59 51°14.391 2°40.377 6.871992 3.434794 33.95149 15.02846
2004-03-19 12:25:59 51°14.332 2°40.753 6.852443 3.439112 33.955195 14.927332
2004-03-19 12:26:59 51°14.269 2°41.125 6.910136 3.431527 33.86533 14.758785
2004-03-19 12:27:59 51°14.209 2°41.49 6.973675 3.435003 33.837358 15.432973
2004-03-19 12:28:59 51°14.196 2°41.879 7.013773 3.437952 33.83041 16.309418
2004-03-19 12:29:59 51°14.234 2°42.273 7.063467 3.442482 33.828254 15.534101
2004-03-19 12:30:59 51°14.271 2°42.68 7.105764 3.446379 33.835849 15.534101
2004-03-19 12:31:59 51°14.317 2°43.079 7.149112 3.451119 33.831865 16.208289
2004-03-19 12:32:59 51°14.368 2°43.476 7.165532 3.450276 33.802792 15.331845
2004-03-19 12:33:59 51°14.41 2°43.879 7.147151 3.447115 33.76509 15.938614
2004-03-19 12:34:59 51°14.453 2°44.28 7.13161 3.441427 33.723039 16.275708
2004-03-19 12:35:59 51°14.511 2°44.672 7.122489 3.437213 33.689573 16.545383
2004-03-19 12:36:59 51°14.567 2°45.066 7.094187 3.435001 33.670449 16.71393
2004-03-19 12:37:59 51°14.624 2°45.458 7.028459 3.426153 33.625289 17.118443
2004-03-19 12:38:59 51°14.665 2°45.857 7.00267 3.416989 33.575761 17.86005
2004-03-19 12:39:59 51°14.731 2°46.237 6.975641 3.409931 33.534263 16.949896
2004-03-19 12:40:59 51°14.779 2°46.62 6.996774 3.409826 33.530634 16.579093
2004-03-19 12:41:59 51°14.823 2°47.013 7.007976 3.413196 33.546775 16.275708
2004-03-19 12:42:59 51°14.897 2°47.398 7.053256 3.417937 33.574536 16.140871
2004-03-19 12:43:59 51°14.967 2°47.795 7.085404 3.430156 33.644943 15.129589
2004-03-19 12:44:59 51°15.033 2°48.188 7.058803 3.423835 33.603335 15.702648
2004-03-19 12:45:59 51°15.1 2°48.574 7.072105 3.423098 33.597776 16.208289
2004-03-19 12:46:59 51°15.163 2°48.96 7.090311 3.426679 33.612857 16.680221
2004-03-19 12:47:59 51°15.236 2°49.35 7.136709 3.431525 33.641687 16.17458
2004-03-19 12:48:59 51°15.3 2°49.74 7.173911 3.441953 33.69985 16.545383
2004-03-19 12:49:59 51°15.353 2°50.133 7.155631 3.44248 33.709708 14.994751
2004-03-19 12:50:59 51°15.398 2°50.534 7.117977 3.435949 33.666728 15.399264
2004-03-19 12:51:59 51°15.425 2°50.933 7.15372 3.435317 33.664804 16.073452
2004-03-19 12:52:59 51°15.428 2°51.338 7.096492 3.434474 33.658109 17.28699
2004-03-19 12:53:59 51°15.402 2°51.728 7.116849 3.427522 33.622863 17.185862
2004-03-19 12:54:59 51°15.3 2°52.064 7.058705 3.424467 33.616007 15.736358
2004-03-19 12:55:59 51°15.192 2°52.388 7.110179 3.432157 33.655176 14.994751
2004-03-19 12:56:59 51°15.086 2°52.722 7.098945 3.430577 33.624763 14.522819
2004-03-19 12:57:59 51°14.989 2°53.061 7.099093 3.416356 33.49385 13.680084
2004-03-19 12:58:59 51°14.885 2°53.394 7.074117 3.428154 33.612412 15.06217
2004-03-19 12:59:59 51°14.777 2°53.726 7.072939 3.423625 33.593609 15.230717
2004-03-19 13:00:59 51°14.676 2°54.068 7.112925 3.420569 33.544665 14.657657
2004-03-19 13:01:59 51°14.577 2°54.412 7.202178 3.419937 33.478591 15.399264
2004-03-19 13:02:59 51°14.471 2°54.751 7.342202 3.422674 33.392161 20.489383
2004-03-19 13:03:59 51°14.369 2°55.053 7.378211 3.426887 33.324725 26.2874
2004-03-19 13:04:59 51°14.261 2°55.271 7.182339 3.350097 32.598515 22.781623
2004-03-19 13:05:59 51°14.156 2°55.388 7.067884 3.184016 30.978227 17.556665
2004-03-19 13:06:59 51°14.053 2°55.469 7.059834 3.108836 30.192989 16.882477